Providence, Rhode Island
Traffic Map
Current Weather Conditions
Providence, Rhode Island
Scattered Clouds
Scattered Clouds
19°
Feels Like: 19°
Wind Chill: 19° Ceiling: Unl
Heat Index: 19° Visibility: 10mi
Dew Point: Wind: 12mph
Humidity: 47% Direction: 150° (SSE)
Pressure: 30.29in Gusts: 0mph
Raw Report DataKPVD 231951Z 15010KT 10SM SCT250 19/08 A3029 RMK AO2 SLP258 T01940078
Traffic Incident Summary
Active as of:
Severity:
Category:
InformationThere was an issue retrieving the traffic information for this location. Please try a different location or try again shortly.
Advertisements
Track Severe Weather on mobile